sensor_id;sensor_type;location;lat;lon;timestamp;P1;durP1;ratioP1;P2;durP2;ratioP2
65210;SDS011;51794;52.758;55.792;2022-11-20T00:01:09;7.60;;;4.72;;
65210;SDS011;51794;52.758;55.792;2022-11-20T00:03:39;9.02;;;4.97;;
65210;SDS011;51794;52.758;55.792;2022-11-20T00:06:07;8.30;;;4.93;;
65210;SDS011;51794;52.758;55.792;2022-11-20T00:08:34;9.38;;;4.30;;
65210;SDS011;51794;52.758;55.792;2022-11-20T00:13:30;6.38;;;3.40;;
65210;SDS011;51794;52.758;55.792;2022-11-20T00:15:57;3.70;;;2.70;;
65210;SDS011;51794;52.758;55.792;2022-11-20T00:18:27;6.43;;;3.25;;
65210;SDS011;51794;52.758;55.792;2022-11-20T00:20:59;6.55;;;2.50;;
65210;SDS011;51794;52.758;55.792;2022-11-20T00:23:26;6.68;;;2.85;;
65210;SDS011;51794;52.758;55.792;2022-11-20T00:25:52;5.40;;;2.72;;
65210;SDS011;51794;52.758;55.792;2022-11-20T00:28:18;2.40;;;1.90;;
65210;SDS011;51794;52.758;55.792;2022-11-20T00:30:44;6.57;;;3.38;;
65210;SDS011;51794;52.758;55.792;2022-11-20T00:33:10;5.97;;;2.53;;
65210;SDS011;51794;52.758;55.792;2022-11-20T00:35:36;5.38;;;2.90;;
65210;SDS011;51794;52.758;55.792;2022-11-20T00:38:02;4.93;;;1.95;;
65210;SDS011;51794;52.758;55.792;2022-11-20T00:40:28;4.47;;;2.88;;
65210;SDS011;51794;52.758;55.792;2022-11-20T00:42:53;7.30;;;4.00;;
65210;SDS011;51794;52.758;55.792;2022-11-20T00:45:19;4.90;;;2.63;;
65210;SDS011;51794;52.758;55.792;2022-11-20T00:47:45;5.43;;;2.88;;
65210;SDS011;51794;52.758;55.792;2022-11-20T00:50:11;4.13;;;2.85;;
65210;SDS011;51794;52.758;55.792;2022-11-20T00:52:37;6.65;;;3.28;;
65210;SDS011;51794;52.758;55.792;2022-11-20T00:55:03;7.00;;;3.10;;
65210;SDS011;51794;52.758;55.792;2022-11-20T00:57:30;7.95;;;3.78;;
65210;SDS011;51794;52.758;55.792;2022-11-20T00:59:56;6.30;;;3.15;;
65210;SDS011;51794;52.758;55.792;2022-11-20T01:02:22;6.35;;;3.53;;
65210;SDS011;51794;52.758;55.792;2022-11-20T01:04:48;3.67;;;2.75;;
65210;SDS011;51794;52.758;55.792;2022-11-20T01:07:14;4.53;;;2.90;;
65210;SDS011;51794;52.758;55.792;2022-11-20T01:09:40;6.45;;;3.67;;
65210;SDS011;51794;52.758;55.792;2022-11-20T01:12:06;5.70;;;3.35;;
65210;SDS011;51794;52.758;55.792;2022-11-20T01:14:32;7.47;;;3.58;;
65210;SDS011;51794;52.758;55.792;2022-11-20T01:16:58;6.18;;;2.90;;
65210;SDS011;51794;52.758;55.792;2022-11-20T01:19:24;6.10;;;3.20;;
65210;SDS011;51794;52.758;55.792;2022-11-20T01:21:51;6.30;;;3.10;;
65210;SDS011;51794;52.758;55.792;2022-11-20T01:24:19;8.00;;;3.40;;
65210;SDS011;51794;52.758;55.792;2022-11-20T01:26:47;7.80;;;3.60;;
65210;SDS011;51794;52.758;55.792;2022-11-20T01:29:19;6.88;;;3.55;;
65210;SDS011;51794;52.758;55.792;2022-11-20T01:31:49;6.55;;;3.40;;
65210;SDS011;51794;52.758;55.792;2022-11-20T01:34:16;6.35;;;3.30;;
65210;SDS011;51794;52.758;55.792;2022-11-20T01:36:43;6.72;;;3.60;;
65210;SDS011;51794;52.758;55.792;2022-11-20T01:39:11;6.13;;;3.40;;
65210;SDS011;51794;52.758;55.792;2022-11-20T01:41:39;6.70;;;3.50;;
65210;SDS011;51794;52.758;55.792;2022-11-20T01:47:09;5.25;;;3.38;;
65210;SDS011;51794;52.758;55.792;2022-11-20T01:49:44;3.03;;;1.83;;
65210;SDS011;51794;52.758;55.792;2022-11-20T01:52:17;5.45;;;3.35;;
65210;SDS011;51794;52.758;55.792;2022-11-20T01:55:12;2.03;;;0.85;;
65210;SDS011;51794;52.758;55.792;2022-11-20T01:58:06;4.38;;;2.60;;
65210;SDS011;51794;52.758;55.792;2022-11-20T02:00:32;5.88;;;2.72;;
65210;SDS011;51794;52.758;55.792;2022-11-20T02:02:59;5.90;;;3.40;;
65210;SDS011;51794;52.758;55.792;2022-11-20T02:08:44;6.00;;;3.20;;
65210;SDS011;51794;52.758;55.792;2022-11-20T02:11:10;5.07;;;3.22;;
65210;SDS011;51794;52.758;55.792;2022-11-20T02:13:38;3.78;;;2.50;;
65210;SDS011;51794;52.758;55.792;2022-11-20T02:16:11;4.95;;;2.47;;
65210;SDS011;51794;52.758;55.792;2022-11-20T02:18:45;5.80;;;2.17;;
65210;SDS011;51794;52.758;55.792;2022-11-20T02:21:33;6.05;;;3.50;;
65210;SDS011;51794;52.758;55.792;2022-11-20T02:24:18;5.90;;;3.47;;
65210;SDS011;51794;52.758;55.792;2022-11-20T02:29:39;6.72;;;2.20;;
65210;SDS011;51794;52.758;55.792;2022-11-20T02:32:06;4.03;;;2.33;;
65210;SDS011;51794;52.758;55.792;2022-11-20T02:34:42;5.68;;;3.00;;
65210;SDS011;51794;52.758;55.792;2022-11-20T02:37:08;6.03;;;2.80;;
65210;SDS011;51794;52.758;55.792;2022-11-20T02:39:34;2.25;;;1.58;;
65210;SDS011;51794;52.758;55.792;2022-11-20T02:42:00;4.40;;;2.95;;
65210;SDS011;51794;52.758;55.792;2022-11-20T02:44:27;5.38;;;2.97;;
65210;SDS011;51794;52.758;55.792;2022-11-20T02:46:56;8.27;;;3.90;;
65210;SDS011;51794;52.758;55.792;2022-11-20T02:49:23;5.72;;;2.53;;
65210;SDS011;51794;52.758;55.792;2022-11-20T02:51:49;5.60;;;2.70;;
65210;SDS011;51794;52.758;55.792;2022-11-20T02:54:15;5.82;;;3.25;;
65210;SDS011;51794;52.758;55.792;2022-11-20T02:56:40;6.22;;;2.97;;
65210;SDS011;51794;52.758;55.792;2022-11-20T02:59:07;5.25;;;3.30;;
65210;SDS011;51794;52.758;55.792;2022-11-20T03:01:33;6.05;;;1.88;;
65210;SDS011;51794;52.758;55.792;2022-11-20T03:03:59;4.68;;;2.33;;
65210;SDS011;51794;52.758;55.792;2022-11-20T03:06:25;3.50;;;1.95;;
65210;SDS011;51794;52.758;55.792;2022-11-20T03:08:51;8.27;;;3.38;;
65210;SDS011;51794;52.758;55.792;2022-11-20T03:11:17;6.43;;;3.55;;
65210;SDS011;51794;52.758;55.792;2022-11-20T03:13:43;8.65;;;3.63;;
65210;SDS011;51794;52.758;55.792;2022-11-20T03:16:13;7.18;;;3.42;;
65210;SDS011;51794;52.758;55.792;2022-11-20T03:18:41;6.78;;;3.25;;
65210;SDS011;51794;52.758;55.792;2022-11-20T03:21:08;5.00;;;3.05;;
65210;SDS011;51794;52.758;55.792;2022-11-20T03:23:35;6.95;;;3.47;;
65210;SDS011;51794;52.758;55.792;2022-11-20T03:26:15;8.93;;;3.22;;
65210;SDS011;51794;52.758;55.792;2022-11-20T03:28:48;4.65;;;2.30;;
65210;SDS011;51794;52.758;55.792;2022-11-20T03:31:16;5.80;;;3.10;;
65210;SDS011;51794;52.758;55.792;2022-11-20T03:33:44;4.50;;;2.90;;
65210;SDS011;51794;52.758;55.792;2022-11-20T03:36:11;6.45;;;3.00;;
65210;SDS011;51794;52.758;55.792;2022-11-20T03:38:38;6.03;;;3.13;;
65210;SDS011;51794;52.758;55.792;2022-11-20T03:41:05;6.40;;;3.47;;
65210;SDS011;51794;52.758;55.792;2022-11-20T03:43:33;8.52;;;3.63;;
65210;SDS011;51794;52.758;55.792;2022-11-20T03:46:00;4.75;;;3.28;;
65210;SDS011;51794;52.758;55.792;2022-11-20T03:48:26;5.82;;;2.92;;
65210;SDS011;51794;52.758;55.792;2022-11-20T03:50:53;6.68;;;3.03;;
65210;SDS011;51794;52.758;55.792;2022-11-20T03:53:32;5.75;;;2.78;;
65210;SDS011;51794;52.758;55.792;2022-11-20T03:55:58;5.88;;;3.38;;
65210;SDS011;51794;52.758;55.792;2022-11-20T03:58:24;6.72;;;3.10;;
65210;SDS011;51794;52.758;55.792;2022-11-20T04:00:50;8.13;;;3.13;;
65210;SDS011;51794;52.758;55.792;2022-11-20T04:03:16;5.93;;;3.30;;
65210;SDS011;51794;52.758;55.792;2022-11-20T04:05:42;5.60;;;2.78;;
65210;SDS011;51794;52.758;55.792;2022-11-20T04:08:08;5.60;;;3.10;;
65210;SDS011;51794;52.758;55.792;2022-11-20T04:10:34;4.82;;;2.67;;
65210;SDS011;51794;52.758;55.792;2022-11-20T04:13:00;7.18;;;3.05;;
65210;SDS011;51794;52.758;55.792;2022-11-20T04:15:26;7.10;;;2.40;;
65210;SDS011;51794;52.758;55.792;2022-11-20T04:17:52;4.38;;;2.88;;
65210;SDS011;51794;52.758;55.792;2022-11-20T04:20:19;6.35;;;3.20;;
65210;SDS011;51794;52.758;55.792;2022-11-20T04:22:45;5.93;;;3.00;;
65210;SDS011;51794;52.758;55.792;2022-11-20T04:25:11;4.70;;;2.80;;
65210;SDS011;51794;52.758;55.792;2022-11-20T04:27:38;6.55;;;3.15;;
65210;SDS011;51794;52.758;55.792;2022-11-20T04:30:04;5.95;;;3.22;;
65210;SDS011;51794;52.758;55.792;2022-11-20T04:32:30;6.30;;;2.83;;
65210;SDS011;51794;52.758;55.792;2022-11-20T04:34:56;7.78;;;3.70;;
65210;SDS011;51794;52.758;55.792;2022-11-20T04:37:22;6.95;;;3.78;;
65210;SDS011;51794;52.758;55.792;2022-11-20T04:39:48;5.72;;;3.30;;
65210;SDS011;51794;52.758;55.792;2022-11-20T04:42:14;5.22;;;3.10;;
65210;SDS011;51794;52.758;55.792;2022-11-20T04:44:55;6.88;;;2.80;;
65210;SDS011;51794;52.758;55.792;2022-11-20T04:47:22;6.65;;;3.67;;
65210;SDS011;51794;52.758;55.792;2022-11-20T04:49:48;5.60;;;3.00;;
65210;SDS011;51794;52.758;55.792;2022-11-20T04:52:14;7.53;;;3.50;;
65210;SDS011;51794;52.758;55.792;2022-11-20T04:54:40;7.00;;;3.75;;
65210;SDS011;51794;52.758;55.792;2022-11-20T04:57:06;7.03;;;3.25;;
65210;SDS011;51794;52.758;55.792;2022-11-20T04:59:32;8.60;;;3.80;;
65210;SDS011;51794;52.758;55.792;2022-11-20T05:01:58;7.95;;;3.58;;
65210;SDS011;51794;52.758;55.792;2022-11-20T05:04:24;5.55;;;3.05;;
65210;SDS011;51794;52.758;55.792;2022-11-20T05:06:50;6.00;;;3.50;;
65210;SDS011;51794;52.758;55.792;2022-11-20T05:09:16;6.07;;;3.60;;
65210;SDS011;51794;52.758;55.792;2022-11-20T05:11:42;5.32;;;3.25;;
65210;SDS011;51794;52.758;55.792;2022-11-20T05:14:08;5.65;;;3.25;;
65210;SDS011;51794;52.758;55.792;2022-11-20T05:16:34;6.07;;;3.38;;
65210;SDS011;51794;52.758;55.792;2022-11-20T05:19:01;8.68;;;3.63;;
65210;SDS011;51794;52.758;55.792;2022-11-20T05:21:29;6.60;;;3.13;;
65210;SDS011;51794;52.758;55.792;2022-11-20T05:23:56;6.80;;;3.65;;
65210;SDS011;51794;52.758;55.792;2022-11-20T05:26:22;6.45;;;3.05;;
65210;SDS011;51794;52.758;55.792;2022-11-20T05:28:48;7.95;;;4.28;;
65210;SDS011;51794;52.758;55.792;2022-11-20T05:31:16;4.88;;;3.42;;
65210;SDS011;51794;52.758;55.792;2022-11-20T05:33:44;6.03;;;3.67;;
65210;SDS011;51794;52.758;55.792;2022-11-20T05:36:11;7.25;;;3.58;;
65210;SDS011;51794;52.758;55.792;2022-11-20T05:38:39;7.35;;;3.50;;
65210;SDS011;51794;52.758;55.792;2022-11-20T05:41:06;5.95;;;3.17;;
65210;SDS011;51794;52.758;55.792;2022-11-20T05:43:40;5.00;;;3.30;;
65210;SDS011;51794;52.758;55.792;2022-11-20T05:46:08;7.30;;;3.60;;
65210;SDS011;51794;52.758;55.792;2022-11-20T05:48:37;7.07;;;3.13;;
65210;SDS011;51794;52.758;55.792;2022-11-20T05:51:05;5.47;;;3.28;;
65210;SDS011;51794;52.758;55.792;2022-11-20T05:53:33;6.72;;;3.55;;
65210;SDS011;51794;52.758;55.792;2022-11-20T05:56:10;6.55;;;3.20;;
65210;SDS011;51794;52.758;55.792;2022-11-20T05:58:38;7.32;;;3.53;;
65210;SDS011;51794;52.758;55.792;2022-11-20T06:01:06;8.20;;;3.53;;
65210;SDS011;51794;52.758;55.792;2022-11-20T06:03:34;8.88;;;4.03;;
65210;SDS011;51794;52.758;55.792;2022-11-20T06:06:01;9.00;;;3.53;;
65210;SDS011;51794;52.758;55.792;2022-11-20T06:08:28;5.70;;;3.80;;
65210;SDS011;51794;52.758;55.792;2022-11-20T06:10:55;6.57;;;4.10;;
65210;SDS011;51794;52.758;55.792;2022-11-20T06:13:21;6.10;;;3.45;;
65210;SDS011;51794;52.758;55.792;2022-11-20T06:15:50;6.32;;;3.40;;
65210;SDS011;51794;52.758;55.792;2022-11-20T06:18:17;7.82;;;3.97;;
65210;SDS011;51794;52.758;55.792;2022-11-20T06:20:44;7.18;;;4.03;;
65210;SDS011;51794;52.758;55.792;2022-11-20T06:23:11;6.60;;;3.88;;
65210;SDS011;51794;52.758;55.792;2022-11-20T06:25:41;8.18;;;4.30;;
65210;SDS011;51794;52.758;55.792;2022-11-20T06:28:08;9.30;;;4.38;;
65210;SDS011;51794;52.758;55.792;2022-11-20T06:30:34;7.95;;;3.72;;
65210;SDS011;51794;52.758;55.792;2022-11-20T06:33:01;6.38;;;3.53;;
65210;SDS011;51794;52.758;55.792;2022-11-20T06:35:27;9.48;;;3.80;;
65210;SDS011;51794;52.758;55.792;2022-11-20T06:37:53;8.07;;;3.88;;
65210;SDS011;51794;52.758;55.792;2022-11-20T06:40:20;9.23;;;4.10;;
65210;SDS011;51794;52.758;55.792;2022-11-20T06:42:46;5.47;;;3.55;;
65210;SDS011;51794;52.758;55.792;2022-11-20T06:45:12;7.15;;;3.78;;
65210;SDS011;51794;52.758;55.792;2022-11-20T06:47:38;7.70;;;3.78;;
65210;SDS011;51794;52.758;55.792;2022-11-20T06:50:04;6.18;;;3.50;;
65210;SDS011;51794;52.758;55.792;2022-11-20T06:52:30;6.90;;;3.60;;
65210;SDS011;51794;52.758;55.792;2022-11-20T06:54:56;7.43;;;3.90;;
65210;SDS011;51794;52.758;55.792;2022-11-20T06:57:22;7.55;;;3.60;;
65210;SDS011;51794;52.758;55.792;2022-11-20T06:59:48;7.15;;;3.78;;
65210;SDS011;51794;52.758;55.792;2022-11-20T07:02:14;7.35;;;3.70;;
65210;SDS011;51794;52.758;55.792;2022-11-20T07:04:40;6.50;;;3.80;;
65210;SDS011;51794;52.758;55.792;2022-11-20T07:07:06;5.88;;;3.55;;
65210;SDS011;51794;52.758;55.792;2022-11-20T07:09:32;7.55;;;3.60;;
65210;SDS011;51794;52.758;55.792;2022-11-20T07:11:59;7.65;;;3.90;;
65210;SDS011;51794;52.758;55.792;2022-11-20T07:14:26;5.68;;;3.38;;
65210;SDS011;51794;52.758;55.792;2022-11-20T07:16:52;8.80;;;3.95;;
65210;SDS011;51794;52.758;55.792;2022-11-20T07:19:18;6.90;;;3.65;;
65210;SDS011;51794;52.758;55.792;2022-11-20T07:21:44;6.43;;;3.80;;
65210;SDS011;51794;52.758;55.792;2022-11-20T07:24:09;5.75;;;3.60;;
65210;SDS011;51794;52.758;55.792;2022-11-20T07:26:35;6.57;;;3.45;;
65210;SDS011;51794;52.758;55.792;2022-11-20T07:29:01;6.22;;;3.38;;
65210;SDS011;51794;52.758;55.792;2022-11-20T07:31:27;7.75;;;3.65;;
65210;SDS011;51794;52.758;55.792;2022-11-20T07:33:53;6.47;;;3.53;;
65210;SDS011;51794;52.758;55.792;2022-11-20T07:36:19;7.93;;;3.67;;
65210;SDS011;51794;52.758;55.792;2022-11-20T07:38:45;7.78;;;3.60;;
65210;SDS011;51794;52.758;55.792;2022-11-20T07:41:11;4.70;;;3.22;;
65210;SDS011;51794;52.758;55.792;2022-11-20T07:43:37;5.75;;;2.78;;
65210;SDS011;51794;52.758;55.792;2022-11-20T07:46:03;6.55;;;3.63;;
65210;SDS011;51794;52.758;55.792;2022-11-20T07:48:29;6.22;;;3.67;;
65210;SDS011;51794;52.758;55.792;2022-11-20T07:50:55;7.40;;;3.83;;
65210;SDS011;51794;52.758;55.792;2022-11-20T07:53:22;7.32;;;3.90;;
65210;SDS011;51794;52.758;55.792;2022-11-20T07:55:50;5.65;;;3.55;;
65210;SDS011;51794;52.758;55.792;2022-11-20T07:58:19;5.70;;;3.35;;
65210;SDS011;51794;52.758;55.792;2022-11-20T08:00:46;5.63;;;3.28;;
65210;SDS011;51794;52.758;55.792;2022-11-20T08:03:12;6.72;;;3.58;;
65210;SDS011;51794;52.758;55.792;2022-11-20T08:05:38;6.63;;;3.50;;
65210;SDS011;51794;52.758;55.792;2022-11-20T08:08:04;7.18;;;3.70;;
65210;SDS011;51794;52.758;55.792;2022-11-20T08:10:30;7.60;;;4.00;;
65210;SDS011;51794;52.758;55.792;2022-11-20T08:12:56;7.53;;;3.92;;
65210;SDS011;51794;52.758;55.792;2022-11-20T08:15:51;4.95;;;3.53;;
65210;SDS011;51794;52.758;55.792;2022-11-20T08:18:17;7.22;;;3.83;;
65210;SDS011;51794;52.758;55.792;2022-11-20T08:20:43;6.75;;;3.83;;
65210;SDS011;51794;52.758;55.792;2022-11-20T08:23:11;7.85;;;4.30;;
65210;SDS011;51794;52.758;55.792;2022-11-20T08:25:37;4.80;;;3.30;;
65210;SDS011;51794;52.758;55.792;2022-11-20T08:28:04;7.35;;;4.38;;
65210;SDS011;51794;52.758;55.792;2022-11-20T08:30:32;6.10;;;3.50;;
65210;SDS011;51794;52.758;55.792;2022-11-20T08:33:02;6.78;;;4.07;;
65210;SDS011;51794;52.758;55.792;2022-11-20T08:35:34;6.68;;;3.72;;
65210;SDS011;51794;52.758;55.792;2022-11-20T08:38:01;6.35;;;3.90;;
65210;SDS011;51794;52.758;55.792;2022-11-20T08:40:28;7.20;;;3.58;;
65210;SDS011;51794;52.758;55.792;2022-11-20T08:42:54;6.50;;;3.85;;
65210;SDS011;51794;52.758;55.792;2022-11-20T08:45:20;6.30;;;3.83;;
65210;SDS011;51794;52.758;55.792;2022-11-20T08:47:46;6.75;;;4.03;;
65210;SDS011;51794;52.758;55.792;2022-11-20T08:50:13;6.03;;;3.47;;
65210;SDS011;51794;52.758;55.792;2022-11-20T08:52:40;7.63;;;4.18;;
65210;SDS011;51794;52.758;55.792;2022-11-20T08:55:07;7.15;;;3.92;;
65210;SDS011;51794;52.758;55.792;2022-11-20T08:57:37;6.38;;;3.70;;
65210;SDS011;51794;52.758;55.792;2022-11-20T09:00:05;4.97;;;3.65;;
65210;SDS011;51794;52.758;55.792;2022-11-20T09:02:32;6.88;;;3.90;;
65210;SDS011;51794;52.758;55.792;2022-11-20T09:04:59;5.78;;;3.65;;
65210;SDS011;51794;52.758;55.792;2022-11-20T09:07:29;8.60;;;4.13;;
65210;SDS011;51794;52.758;55.792;2022-11-20T09:09:55;7.15;;;3.83;;
65210;SDS011;51794;52.758;55.792;2022-11-20T09:12:21;7.57;;;4.80;;
65210;SDS011;51794;52.758;55.792;2022-11-20T09:14:47;10.50;;;6.25;;
65210;SDS011;51794;52.758;55.792;2022-11-20T09:17:14;7.25;;;4.13;;
65210;SDS011;51794;52.758;55.792;2022-11-20T09:19:40;5.90;;;3.95;;
65210;SDS011;51794;52.758;55.792;2022-11-20T09:22:06;5.82;;;3.63;;
65210;SDS011;51794;52.758;55.792;2022-11-20T09:24:32;8.43;;;4.60;;
65210;SDS011;51794;52.758;55.792;2022-11-20T09:27:00;6.53;;;3.90;;
65210;SDS011;51794;52.758;55.792;2022-11-20T09:29:27;7.35;;;3.80;;
65210;SDS011;51794;52.758;55.792;2022-11-20T09:31:53;6.10;;;3.78;;
65210;SDS011;51794;52.758;55.792;2022-11-20T09:34:19;8.02;;;4.22;;
65210;SDS011;51794;52.758;55.792;2022-11-20T09:36:45;7.20;;;4.20;;
65210;SDS011;51794;52.758;55.792;2022-11-20T09:39:11;6.35;;;4.20;;
65210;SDS011;51794;52.758;55.792;2022-11-20T09:41:51;7.65;;;4.40;;
65210;SDS011;51794;52.758;55.792;2022-11-20T09:44:36;7.43;;;4.03;;
65210;SDS011;51794;52.758;55.792;2022-11-20T09:50:07;6.80;;;4.30;;
65210;SDS011;51794;52.758;55.792;2022-11-20T09:55:29;6.80;;;4.25;;
65210;SDS011;51794;52.758;55.792;2022-11-20T09:57:56;7.97;;;4.18;;
65210;SDS011;51794;52.758;55.792;2022-11-20T10:00:24;7.22;;;3.85;;
65210;SDS011;51794;52.758;55.792;2022-11-20T10:02:55;6.32;;;3.70;;
65210;SDS011;51794;52.758;55.792;2022-11-20T10:05:44;8.27;;;4.05;;
65210;SDS011;51794;52.758;55.792;2022-11-20T10:08:21;7.50;;;4.38;;
65210;SDS011;51794;52.758;55.792;2022-11-20T10:25:06;7.82;;;4.53;;
65210;SDS011;51794;52.758;55.792;2022-11-20T10:30:33;6.68;;;4.50;;
65210;SDS011;51794;52.758;55.792;2022-11-20T10:33:05;10.63;;;5.22;;
65210;SDS011;51794;52.758;55.792;2022-11-20T10:35:42;9.43;;;5.38;;
65210;SDS011;51794;52.758;55.792;2022-11-20T10:40:50;11.77;;;6.00;;
65210;SDS011;51794;52.758;55.792;2022-11-20T10:43:40;10.75;;;5.72;;
65210;SDS011;51794;52.758;55.792;2022-11-20T10:46:10;9.77;;;5.88;;
65210;SDS011;51794;52.758;55.792;2022-11-20T10:48:43;11.52;;;6.40;;
65210;SDS011;51794;52.758;55.792;2022-11-20T10:56:53;12.98;;;5.72;;
65210;SDS011;51794;52.758;55.792;2022-11-20T11:02:22;10.60;;;6.15;;
65210;SDS011;51794;52.758;55.792;2022-11-20T11:04:50;14.77;;;6.68;;
65210;SDS011;51794;52.758;55.792;2022-11-20T11:09:55;16.17;;;7.55;;
65210;SDS011;51794;52.758;55.792;2022-11-20T11:12:22;14.95;;;6.65;;
65210;SDS011;51794;52.758;55.792;2022-11-20T11:14:51;14.15;;;6.90;;
65210;SDS011;51794;52.758;55.792;2022-11-20T11:17:29;16.65;;;7.53;;
65210;SDS011;51794;52.758;55.792;2022-11-20T11:22:33;20.70;;;7.82;;
65210;SDS011;51794;52.758;55.792;2022-11-20T11:25:12;17.45;;;8.80;;
65210;SDS011;51794;52.758;55.792;2022-11-20T11:28:19;16.05;;;7.80;;
65210;SDS011;51794;52.758;55.792;2022-11-20T11:30:46;16.45;;;7.40;;
65210;SDS011;51794;52.758;55.792;2022-11-20T11:35:58;15.10;;;7.35;;
65210;SDS011;51794;52.758;55.792;2022-11-20T11:38:38;14.65;;;7.13;;
65210;SDS011;51794;52.758;55.792;2022-11-20T11:41:09;11.32;;;5.65;;
65210;SDS011;51794;52.758;55.792;2022-11-20T11:43:54;11.68;;;7.00;;
65210;SDS011;51794;52.758;55.792;2022-11-20T11:46:51;16.35;;;7.10;;
65210;SDS011;51794;52.758;55.792;2022-11-20T11:49:19;13.73;;;6.85;;
65210;SDS011;51794;52.758;55.792;2022-11-20T11:54:22;15.70;;;7.28;;
65210;SDS011;51794;52.758;55.792;2022-11-20T11:56:51;13.38;;;7.30;;
65210;SDS011;51794;52.758;55.792;2022-11-20T11:59:54;14.30;;;6.43;;
65210;SDS011;51794;52.758;55.792;2022-11-20T12:07:42;10.70;;;5.82;;
65210;SDS011;51794;52.758;55.792;2022-11-20T12:10:17;13.57;;;6.07;;
65210;SDS011;51794;52.758;55.792;2022-11-20T12:12:54;9.57;;;5.95;;
65210;SDS011;51794;52.758;55.792;2022-11-20T12:15:30;8.93;;;5.10;;
65210;SDS011;51794;52.758;55.792;2022-11-20T12:17:59;11.00;;;5.72;;
65210;SDS011;51794;52.758;55.792;2022-11-20T12:20:29;7.88;;;4.63;;
65210;SDS011;51794;52.758;55.792;2022-11-20T12:23:13;7.43;;;4.63;;
65210;SDS011;51794;52.758;55.792;2022-11-20T12:25:48;8.63;;;4.35;;
65210;SDS011;51794;52.758;55.792;2022-11-20T12:28:36;8.77;;;4.50;;
65210;SDS011;51794;52.758;55.792;2022-11-20T12:36:50;7.05;;;4.22;;
65210;SDS011;51794;52.758;55.792;2022-11-20T13:07:47;8.48;;;4.88;;
65210;SDS011;51794;52.758;55.792;2022-11-20T13:10:18;7.20;;;4.10;;
65210;SDS011;51794;52.758;55.792;2022-11-20T13:12:48;8.45;;;4.03;;
65210;SDS011;51794;52.758;55.792;2022-11-20T13:18:21;7.15;;;4.80;;
65210;SDS011;51794;52.758;55.792;2022-11-20T13:20:47;7.13;;;4.60;;
65210;SDS011;51794;52.758;55.792;2022-11-20T13:23:33;8.10;;;4.70;;
65210;SDS011;51794;52.758;55.792;2022-11-20T13:26:32;8.15;;;4.43;;
65210;SDS011;51794;52.758;55.792;2022-11-20T13:29:16;10.48;;;5.28;;
65210;SDS011;51794;52.758;55.792;2022-11-20T13:31:43;8.05;;;4.25;;
65210;SDS011;51794;52.758;55.792;2022-11-20T13:34:12;8.95;;;4.72;;
65210;SDS011;51794;52.758;55.792;2022-11-20T13:36:50;7.85;;;4.15;;
65210;SDS011;51794;52.758;55.792;2022-11-20T13:39:24;8.60;;;4.15;;
65210;SDS011;51794;52.758;55.792;2022-11-20T13:42:02;6.47;;;3.70;;
65210;SDS011;51794;52.758;55.792;2022-11-20T13:44:54;6.97;;;3.97;;
65210;SDS011;51794;52.758;55.792;2022-11-20T13:47:26;6.88;;;2.78;;
65210;SDS011;51794;52.758;55.792;2022-11-20T13:49:54;5.97;;;3.50;;
65210;SDS011;51794;52.758;55.792;2022-11-20T13:55:16;7.40;;;4.45;;
65210;SDS011;51794;52.758;55.792;2022-11-20T14:00:17;7.18;;;3.88;;
65210;SDS011;51794;52.758;55.792;2022-11-20T14:03:30;6.38;;;3.60;;
65210;SDS011;51794;52.758;55.792;2022-11-20T14:05:35;5.07;;;2.10;;
65210;SDS011;51794;52.758;55.792;2022-11-20T14:08:04;7.22;;;3.88;;
65210;SDS011;51794;52.758;55.792;2022-11-20T14:10:36;9.32;;;4.55;;
65210;SDS011;51794;52.758;55.792;2022-11-20T14:13:12;8.32;;;4.25;;
65210;SDS011;51794;52.758;55.792;2022-11-20T14:15:44;8.93;;;4.13;;
65210;SDS011;51794;52.758;55.792;2022-11-20T14:18:14;8.20;;;4.20;;
65210;SDS011;51794;52.758;55.792;2022-11-20T14:20:51;8.27;;;4.15;;
65210;SDS011;51794;52.758;55.792;2022-11-20T14:23:27;10.27;;;4.72;;
65210;SDS011;51794;52.758;55.792;2022-11-20T14:25:54;10.02;;;4.70;;
65210;SDS011;51794;52.758;55.792;2022-11-20T14:28:28;8.43;;;4.85;;
65210;SDS011;51794;52.758;55.792;2022-11-20T14:30:56;9.93;;;5.07;;
65210;SDS011;51794;52.758;55.792;2022-11-20T14:33:23;10.23;;;5.20;;
65210;SDS011;51794;52.758;55.792;2022-11-20T14:35:53;10.23;;;4.90;;
65210;SDS011;51794;52.758;55.792;2022-11-20T14:38:27;8.75;;;4.60;;
65210;SDS011;51794;52.758;55.792;2022-11-20T14:41:04;8.43;;;4.45;;
65210;SDS011;51794;52.758;55.792;2022-11-20T14:43:34;10.60;;;5.70;;
65210;SDS011;51794;52.758;55.792;2022-11-20T14:46:04;12.07;;;6.85;;
65210;SDS011;51794;52.758;55.792;2022-11-20T14:51:11;14.15;;;5.85;;
65210;SDS011;51794;52.758;55.792;2022-11-20T14:56:14;10.35;;;4.70;;
65210;SDS011;51794;52.758;55.792;2022-11-20T14:58:55;10.65;;;4.38;;
65210;SDS011;51794;52.758;55.792;2022-11-20T15:01:26;9.07;;;5.18;;
65210;SDS011;51794;52.758;55.792;2022-11-20T15:04:00;10.13;;;4.93;;
65210;SDS011;51794;52.758;55.792;2022-11-20T15:06:30;9.95;;;4.85;;
65210;SDS011;51794;52.758;55.792;2022-11-20T15:08:58;8.63;;;4.70;;
65210;SDS011;51794;52.758;55.792;2022-11-20T15:11:28;7.97;;;4.80;;
65210;SDS011;51794;52.758;55.792;2022-11-20T15:13:56;8.93;;;4.80;;
65210;SDS011;51794;52.758;55.792;2022-11-20T15:16:23;8.63;;;4.57;;
65210;SDS011;51794;52.758;55.792;2022-11-20T15:18:51;13.63;;;5.03;;
65210;SDS011;51794;52.758;55.792;2022-11-20T15:21:18;8.35;;;3.63;;
65210;SDS011;51794;52.758;55.792;2022-11-20T15:23:46;7.20;;;3.92;;
65210;SDS011;51794;52.758;55.792;2022-11-20T15:26:14;7.53;;;4.70;;
65210;SDS011;51794;52.758;55.792;2022-11-20T15:28:46;6.95;;;3.53;;
65210;SDS011;51794;52.758;55.792;2022-11-20T15:31:15;8.63;;;4.93;;
65210;SDS011;51794;52.758;55.792;2022-11-20T15:33:42;7.18;;;4.18;;
65210;SDS011;51794;52.758;55.792;2022-11-20T15:36:08;10.90;;;5.10;;
65210;SDS011;51794;52.758;55.792;2022-11-20T15:38:35;9.07;;;4.68;;
65210;SDS011;51794;52.758;55.792;2022-11-20T15:41:01;8.55;;;4.50;;
65210;SDS011;51794;52.758;55.792;2022-11-20T15:43:27;7.97;;;3.90;;
65210;SDS011;51794;52.758;55.792;2022-11-20T15:45:54;8.75;;;4.63;;
65210;SDS011;51794;52.758;55.792;2022-11-20T15:48:28;7.55;;;4.65;;
65210;SDS011;51794;52.758;55.792;2022-11-20T15:51:11;11.23;;;5.20;;
65210;SDS011;51794;52.758;55.792;2022-11-20T15:53:57;15.00;;;5.32;;
65210;SDS011;51794;52.758;55.792;2022-11-20T15:56:23;10.23;;;5.03;;
65210;SDS011;51794;52.758;55.792;2022-11-20T15:58:49;11.35;;;4.80;;
65210;SDS011;51794;52.758;55.792;2022-11-20T16:01:17;8.13;;;4.35;;
65210;SDS011;51794;52.758;55.792;2022-11-20T16:03:44;8.80;;;4.47;;
65210;SDS011;51794;52.758;55.792;2022-11-20T16:06:12;8.55;;;4.93;;
65210;SDS011;51794;52.758;55.792;2022-11-20T16:08:38;7.63;;;4.47;;
65210;SDS011;51794;52.758;55.792;2022-11-20T16:11:04;9.35;;;4.25;;
65210;SDS011;51794;52.758;55.792;2022-11-20T16:13:30;9.90;;;3.50;;
65210;SDS011;51794;52.758;55.792;2022-11-20T16:16:21;10.90;;;4.57;;
65210;SDS011;51794;52.758;55.792;2022-11-20T16:18:49;8.43;;;4.80;;
65210;SDS011;51794;52.758;55.792;2022-11-20T16:21:15;8.52;;;4.63;;
65210;SDS011;51794;52.758;55.792;2022-11-20T16:23:41;12.10;;;4.10;;
65210;SDS011;51794;52.758;55.792;2022-11-20T16:26:11;8.13;;;4.63;;
65210;SDS011;51794;52.758;55.792;2022-11-20T16:28:38;9.23;;;4.80;;
65210;SDS011;51794;52.758;55.792;2022-11-20T16:31:12;10.82;;;5.30;;
65210;SDS011;51794;52.758;55.792;2022-11-20T16:33:40;11.15;;;5.30;;
65210;SDS011;51794;52.758;55.792;2022-11-20T16:36:13;10.43;;;4.60;;